Time;durP1;ratioP1;P1;durP2;ratioP2;P2;SDS_P1;SDS_P2;PMS_P1;PMS_P2;Temp;Humidity;BMP_temperature;BMP_pressure;BME280_temperature;BME280_humidity;BME280_pressure;Samples;Min_cycle;Max_cycle;Signal;HPM_P1;HPM_P2
2022/03/17 00:01:54;;;;;;;10.63;7.87;;;8.50;99.90;;;;;;467347;254;27941;-73
2022/03/17 00:05:59;;;;;;;12.57;9.60;;;8.50;99.90;;;;;;467376;254;28051;-71
2022/03/17 00:08:10;;;;;;;13.93;10.63;;;8.60;99.90;;;;;;467361;254;28558;-73
2022/03/17 00:10:11;;;;;;;14.47;11.30;;;8.60;99.90;;;;;;467365;254;27959;-71
2022/03/17 00:12:13;;;;;;;24.37;16.20;;;8.60;99.90;;;;;;467321;254;28649;-73
2022/03/17 00:14:14;;;;;;;23.23;15.73;;;8.60;99.90;;;;;;467371;254;28031;-71
2022/03/17 00:16:21;;;;;;;23.93;16.40;;;8.60;99.90;;;;;;467315;254;28121;-72
2022/03/17 00:18:23;;;;;;;23.03;15.33;;;8.60;99.90;;;;;;467346;254;28106;-72
2022/03/17 00:20:33;;;;;;;24.77;16.77;;;8.60;99.90;;;;;;467311;254;28482;-73
2022/03/17 00:22:34;;;;;;;25.60;15.33;;;8.50;99.90;;;;;;467335;254;27766;-72
2022/03/17 00:24:38;;;;;;;25.73;15.87;;;8.50;99.90;;;;;;467318;254;28298;-73
2022/03/17 00:26:40;;;;;;;21.73;13.40;;;8.50;99.90;;;;;;467355;254;28133;-70
2022/03/17 00:28:44;;;;;;;22.47;15.63;;;8.50;99.90;;;;;;467321;254;28196;-73
2022/03/17 00:30:45;;;;;;;24.77;16.67;;;8.50;99.90;;;;;;467335;254;27805;-73
2022/03/17 00:32:49;;;;;;;21.73;15.20;;;8.40;99.90;;;;;;467276;254;28768;-73
2022/03/17 00:37:11;;;;;;;19.10;13.40;;;8.40;99.90;;;;;;467314;254;27430;-72
2022/03/17 00:39:13;;;;;;;19.87;13.83;;;8.40;99.90;;;;;;467343;253;27938;-72
2022/03/17 00:41:17;;;;;;;18.13;14.30;;;8.40;99.90;;;;;;467337;254;28135;-74
2022/03/17 00:43:21;;;;;;;17.50;13.63;;;8.40;99.90;;;;;;467369;254;27977;-72
2022/03/17 00:45:20;;;;;;;21.80;15.13;;;8.40;99.90;;;;;;467314;254;28325;-73
2022/03/17 00:47:33;;;;;;;18.97;13.80;;;8.40;99.90;;;;;;467347;254;28493;-73
2022/03/17 04:17:24;;;;;;;16.20;11.93;;;7.20;99.90;;;;;;467337;254;27779;-73
2022/03/17 04:19:25;;;;;;;15.60;11.77;;;7.20;99.90;;;;;;467363;254;28101;-72
2022/03/17 04:21:32;;;;;;;14.70;10.90;;;7.30;99.90;;;;;;467345;254;27587;-72
2022/03/17 04:23:34;;;;;;;15.17;10.60;;;7.30;99.90;;;;;;467313;254;27858;-71
2022/03/17 04:25:36;;;;;;;15.47;10.67;;;7.40;99.90;;;;;;467337;254;28444;-73
2022/03/17 04:27:37;;;;;;;14.40;11.40;;;7.40;99.90;;;;;;467324;254;27788;-71
2022/03/17 04:29:40;;;;;;;13.83;10.80;;;7.40;99.90;;;;;;467329;254;28054;-73
2022/03/17 04:31:41;;;;;;;15.03;11.60;;;7.40;99.90;;;;;;467340;254;27947;-71
2022/03/17 04:33:44;;;;;;;15.80;12.10;;;7.40;99.90;;;;;;467190;254;28410;-73
2022/03/17 04:35:45;;;;;;;12.83;10.40;;;7.30;99.90;;;;;;467353;254;27778;-71
2022/03/17 04:37:53;;;;;;;14.30;10.50;;;7.40;99.90;;;;;;467328;254;28562;-71
2022/03/17 04:39:54;;;;;;;14.30;10.33;;;7.30;99.90;;;;;;467350;254;27899;-71
2022/03/17 04:42:02;;;;;;;14.70;10.63;;;7.40;99.90;;;;;;467318;254;27996;-71
2022/03/17 04:44:03;;;;;;;10.80;8.60;;;7.40;99.90;;;;;;467295;254;27592;-71
2022/03/17 04:46:08;;;;;;;12.30;9.00;;;7.50;99.90;;;;;;467296;254;27914;-73
2022/03/17 04:48:09;;;;;;;11.33;8.83;;;7.40;99.90;;;;;;467328;254;28047;-71
2022/03/17 04:50:13;;;;;;;10.30;7.90;;;7.40;99.90;;;;;;467331;254;27943;-70
2022/03/17 04:56:38;;;;;;;10.63;8.40;;;7.30;99.90;;;;;;467341;254;28109;-71
2022/03/17 04:58:45;;;;;;;10.73;9.13;;;7.30;99.90;;;;;;467315;254;28025;-71
2022/03/17 05:00:46;;;;;;;9.60;7.83;;;7.30;99.90;;;;;;467311;254;27938;-72
2022/03/17 05:02:51;;;;;;;12.80;9.10;;;7.30;99.90;;;;;;467304;254;27816;-71
2022/03/17 05:04:52;;;;;;;10.93;8.00;;;7.40;99.90;;;;;;467326;254;27650;-72
2022/03/17 05:07:03;;;;;;;11.27;8.70;;;7.40;99.90;;;;;;467308;254;27946;-71
2022/03/17 05:09:05;;;;;;;11.27;8.87;;;7.30;99.90;;;;;;467295;254;28001;-71
2022/03/17 05:11:13;;;;;;;11.97;8.90;;;7.20;99.90;;;;;;467283;254;27904;-71
2022/03/17 05:13:13;;;;;;;9.57;8.13;;;7.00;99.90;;;;;;467266;254;28106;-72
2022/03/17 05:15:14;;;;;;;11.50;8.63;;;7.00;99.90;;;;;;467332;254;27528;-71
2022/03/17 05:17:15;;;;;;;10.90;8.60;;;7.00;99.90;;;;;;467306;254;27741;-71
2022/03/17 05:19:17;;;;;;;9.67;8.00;;;7.00;99.90;;;;;;467339;254;28017;-71
2022/03/17 05:21:19;;;;;;;9.43;7.43;;;7.10;99.90;;;;;;467287;254;28094;-71
2022/03/17 05:23:19;;;;;;;8.57;6.90;;;7.10;99.90;;;;;;467297;254;28007;-71
2022/03/17 05:25:21;;;;;;;9.40;7.40;;;7.10;99.90;;;;;;467322;254;28418;-71
2022/03/17 05:27:31;;;;;;;8.30;7.20;;;7.10;99.90;;;;;;467277;254;28276;-73
2022/03/17 05:29:32;;;;;;;9.17;7.23;;;7.20;99.90;;;;;;467327;254;27817;-71
2022/03/17 05:31:33;;;;;;;8.00;7.07;;;7.20;99.90;;;;;;467335;254;28015;-73
2022/03/17 05:33:34;;;;;;;9.90;7.80;;;7.20;99.90;;;;;;467291;254;27956;-71
2022/03/17 05:35:36;;;;;;;9.27;7.57;;;7.20;99.90;;;;;;467304;254;28566;-71
2022/03/17 05:37:43;;;;;;;9.10;7.17;;;7.20;99.90;;;;;;467348;254;28268;-73
2022/03/17 05:39:40;;;;;;;9.13;7.10;;;7.20;99.90;;;;;;467079;254;28052;-71
2022/03/17 05:41:50;;;;;;;8.50;6.70;;;7.20;99.90;;;;;;467311;254;27807;-73
2022/03/17 05:43:52;;;;;;;9.97;7.60;;;7.20;99.90;;;;;;467324;254;28012;-71
2022/03/17 05:45:54;;;;;;;9.30;7.53;;;7.20;99.90;;;;;;467297;254;27810;-73
2022/03/17 05:47:55;;;;;;;9.93;7.63;;;7.20;99.90;;;;;;467350;254;28012;-71
2022/03/17 05:49:56;;;;;;;8.83;7.83;;;7.20;99.90;;;;;;467346;254;28039;-73
2022/03/17 05:52:07;;;;;;;10.27;8.00;;;7.30;99.90;;;;;;467319;254;27986;-71
2022/03/17 05:54:08;;;;;;;10.70;8.20;;;7.20;99.90;;;;;;467296;254;27947;-71
2022/03/17 05:56:09;;;;;;;9.30;7.70;;;7.30;99.90;;;;;;467330;254;27941;-71
2022/03/17 05:58:11;;;;;;;8.77;6.97;;;7.30;99.90;;;;;;467336;254;28014;-73
2022/03/17 06:00:27;;;;;;;10.53;7.33;;;7.30;99.90;;;;;;467311;254;28006;-71
2022/03/17 06:02:28;;;;;;;11.63;7.93;;;7.20;99.90;;;;;;467395;254;28038;-72
2022/03/17 06:04:30;;;;;;;9.87;7.57;;;7.20;99.90;;;;;;467294;254;27809;-73
2022/03/17 06:06:31;;;;;;;8.27;6.77;;;7.20;99.90;;;;;;467344;254;28126;-73
2022/03/17 06:08:32;;;;;;;10.10;7.67;;;7.30;99.90;;;;;;467304;254;27866;-72
2022/03/17 06:10:38;;;;;;;9.03;7.30;;;7.30;99.90;;;;;;467321;254;28037;-72
2022/03/17 06:12:38;;;;;;;9.47;7.63;;;7.30;99.90;;;;;;467301;254;27998;-72
2022/03/17 06:14:45;;;;;;;9.23;7.03;;;7.30;99.90;;;;;;467321;254;28024;-72
2022/03/17 06:16:47;;;;;;;9.60;7.73;;;7.30;99.90;;;;;;467329;254;27698;-72
2022/03/17 06:18:49;;;;;;;8.57;7.13;;;7.30;99.90;;;;;;467313;254;28055;-72
2022/03/17 06:20:50;;;;;;;8.70;7.63;;;7.30;99.90;;;;;;467341;254;27651;-72
2022/03/17 06:22:51;;;;;;;9.70;7.93;;;7.30;99.90;;;;;;467336;254;28112;-72
2022/03/17 06:24:59;;;;;;;11.60;9.07;;;7.30;99.90;;;;;;467318;254;28408;-72
2022/03/17 06:27:00;;;;;;;14.50;9.83;;;7.30;99.90;;;;;;467347;254;28592;-70
2022/03/17 06:29:20;;;;;;;13.90;9.67;;;7.40;99.90;;;;;;467362;254;28678;-74
2022/03/17 06:31:21;;;;;;;10.47;7.90;;;7.30;99.90;;;;;;467342;254;27781;-72
2022/03/17 06:35:39;;;;;;;10.70;8.80;;;7.40;99.90;;;;;;467333;254;27893;-72
2022/03/17 06:37:40;;;;;;;12.17;8.73;;;7.40;99.90;;;;;;467342;254;27985;-72
2022/03/17 06:39:44;;;;;;;13.20;9.27;;;7.50;99.90;;;;;;467318;254;27893;-72
2022/03/17 06:41:45;;;;;;;10.00;8.73;;;7.50;99.90;;;;;;467352;254;28001;-72
2022/03/17 06:43:46;;;;;;;9.50;7.13;;;7.50;99.90;;;;;;467322;254;27897;-72
2022/03/17 06:45:47;;;;;;;12.00;8.60;;;7.50;99.90;;;;;;467292;254;27909;-72
2022/03/17 06:47:52;;;;;;;10.83;8.90;;;7.60;99.90;;;;;;467258;254;27587;-72
2022/03/17 06:49:53;;;;;;;10.23;8.00;;;7.50;99.90;;;;;;467341;254;28063;-72
2022/03/17 06:54:05;;;;;;;10.80;8.50;;;7.60;99.90;;;;;;467339;254;28232;-72
2022/03/17 06:56:12;;;;;;;10.47;8.50;;;7.60;99.90;;;;;;467310;254;27942;-72
2022/03/17 06:58:13;;;;;;;10.57;8.50;;;7.60;99.90;;;;;;467313;254;28001;-73
2022/03/17 07:00:16;;;;;;;13.10;9.07;;;7.70;99.90;;;;;;467294;254;27926;-73
2022/03/17 07:02:17;;;;;;;14.43;9.77;;;7.70;99.90;;;;;;467310;254;27985;-72
2022/03/17 07:04:24;;;;;;;12.60;9.40;;;7.80;99.90;;;;;;467302;254;28041;-73
2022/03/17 07:06:25;;;;;;;12.20;8.97;;;7.90;99.90;;;;;;467328;254;27870;-72
2022/03/17 07:08:33;;;;;;;11.40;8.80;;;7.90;99.90;;;;;;467300;254;28058;-72
2022/03/17 07:10:34;;;;;;;13.20;9.50;;;7.90;99.90;;;;;;467343;254;28037;-72
2022/03/17 07:12:47;;;;;;;13.93;9.93;;;7.90;99.90;;;;;;467298;254;27908;-73
2022/03/17 07:14:46;;;;;;;11.70;9.40;;;7.90;99.90;;;;;;467283;254;27904;-72
2022/03/17 07:16:54;;;;;;;10.60;8.33;;;7.90;99.90;;;;;;467287;254;27570;-72
2022/03/17 07:18:55;;;;;;;14.47;9.70;;;7.90;99.90;;;;;;467322;254;27943;-73
2022/03/17 07:21:07;;;;;;;11.00;9.13;;;7.90;99.90;;;;;;467321;254;28353;-72
2022/03/17 07:23:07;;;;;;;10.67;9.07;;;7.90;99.90;;;;;;467324;254;28040;-72
2022/03/17 07:25:24;;;;;;;10.30;8.17;;;7.90;99.90;;;;;;467290;254;27796;-73
2022/03/17 07:27:24;;;;;;;11.13;9.07;;;7.90;99.90;;;;;;467307;253;28095;-77
2022/03/17 07:29:39;;;;;;;11.50;8.70;;;7.90;99.90;;;;;;467316;254;27774;-72
2022/03/17 07:31:39;;;;;;;11.30;8.57;;;7.90;99.90;;;;;;467285;254;27814;-72
2022/03/17 07:33:43;;;;;;;11.50;8.27;;;7.90;99.90;;;;;;467300;254;27879;-72
2022/03/17 07:35:45;;;;;;;9.57;7.90;;;7.90;99.90;;;;;;467298;254;27452;-76
2022/03/17 07:37:46;;;;;;;12.53;8.83;;;7.90;99.90;;;;;;467296;254;27726;-72
2022/03/17 07:39:53;;;;;;;10.57;8.87;;;8.00;99.90;;;;;;467302;254;28470;-73
2022/03/17 07:41:54;;;;;;;9.87;7.93;;;8.00;99.90;;;;;;467323;254;28131;-72
2022/03/17 07:43:56;;;;;;;10.40;8.10;;;8.00;99.90;;;;;;467278;254;28114;-72
2022/03/17 07:45:58;;;;;;;10.90;8.47;;;8.00;99.90;;;;;;467304;254;28008;-72
2022/03/17 07:48:08;;;;;;;10.23;8.00;;;8.10;99.90;;;;;;467325;254;27932;-72
2022/03/17 07:50:11;;;;;;;10.13;8.00;;;8.10;99.90;;;;;;467331;254;28014;-70
2022/03/17 07:52:14;;;;;;;10.40;8.07;;;8.20;99.90;;;;;;467341;254;28000;-73
2022/03/17 07:54:15;;;;;;;10.57;8.53;;;8.20;99.90;;;;;;467305;254;27941;-73
2022/03/17 07:56:16;;;;;;;11.10;9.07;;;8.30;99.90;;;;;;467294;254;27801;-73
2022/03/17 07:58:24;;;;;;;10.47;8.07;;;8.30;99.90;;;;;;467314;254;28478;-73
2022/03/17 08:00:25;;;;;;;11.10;9.10;;;8.40;99.90;;;;;;467320;254;27967;-70
2022/03/17 08:02:32;;;;;;;11.03;8.67;;;8.40;99.90;;;;;;467323;254;27695;-73
2022/03/17 08:04:34;;;;;;;11.50;8.87;;;8.50;99.90;;;;;;467316;254;27851;-73
2022/03/17 08:06:40;;;;;;;10.03;8.30;;;8.40;99.90;;;;;;467262;254;27939;-73
2022/03/17 08:08:41;;;;;;;11.40;9.10;;;8.60;99.90;;;;;;467315;254;27899;-73
2022/03/17 08:10:43;;;;;;;12.37;9.30;;;8.60;99.90;;;;;;467333;254;27939;-73
2022/03/17 08:12:46;;;;;;;12.10;9.03;;;8.70;99.90;;;;;;467337;254;27945;-71
2022/03/17 08:14:46;;;;;;;11.63;9.30;;;8.70;99.90;;;;;;467323;254;28401;-75
2022/03/17 08:16:54;;;;;;;10.53;8.43;;;8.80;99.90;;;;;;467307;254;28351;-74
2022/03/17 08:18:55;;;;;;;11.20;9.50;;;8.80;99.90;;;;;;467297;254;27938;-71
2022/03/17 08:21:00;;;;;;;11.20;9.27;;;8.90;99.90;;;;;;467323;254;27858;-73
2022/03/17 08:23:01;;;;;;;13.30;9.90;;;8.90;99.90;;;;;;467358;254;27969;-71
2022/03/17 08:25:08;;;;;;;12.43;9.13;;;8.90;99.90;;;;;;467325;254;28216;-72
2022/03/17 08:27:09;;;;;;;12.20;8.97;;;8.90;99.90;;;;;;467332;254;27977;-72
2022/03/17 08:29:11;;;;;;;12.70;10.10;;;8.90;99.90;;;;;;467325;254;28060;-72
2022/03/17 08:31:12;;;;;;;15.73;10.43;;;8.90;99.90;;;;;;467296;254;28441;-72
2022/03/17 08:33:20;;;;;;;12.03;9.77;;;8.90;99.90;;;;;;467330;254;28491;-73
2022/03/17 08:35:21;;;;;;;13.80;10.17;;;8.80;99.90;;;;;;467351;254;27565;-71
2022/03/17 08:37:30;;;;;;;13.80;10.20;;;8.80;99.90;;;;;;467330;254;27742;-73
2022/03/17 08:39:29;;;;;;;14.60;10.20;;;8.80;99.90;;;;;;467291;254;28682;-72
2022/03/17 08:41:40;;;;;;;14.23;10.00;;;8.80;99.90;;;;;;467319;254;28056;-72
2022/03/17 08:43:41;;;;;;;11.63;9.10;;;8.90;99.90;;;;;;467322;254;28048;-72
2022/03/17 08:50:22;;;;;;;12.30;9.17;;;9.00;99.90;;;;;;467320;254;27686;-73
2022/03/17 08:52:23;;;;;;;13.50;9.80;;;9.10;99.90;;;;;;467327;254;28589;-74
2022/03/17 08:54:33;;;;;;;13.07;10.20;;;9.20;99.90;;;;;;467327;254;28629;-73
2022/03/17 08:56:36;;;;;;;11.10;9.03;;;9.20;99.90;;;;;;467317;254;28028;-71
2022/03/17 08:58:39;;;;;;;10.43;8.43;;;9.40;99.90;;;;;;467114;254;27988;-73
2022/03/17 09:00:40;;;;;;;12.10;9.30;;;9.40;99.90;;;;;;467340;254;28151;-71
2022/03/17 09:02:44;;;;;;;12.20;10.00;;;9.40;99.90;;;;;;467324;254;28119;-74
2022/03/17 09:04:55;;;;;;;11.17;9.20;;;9.50;99.90;;;;;;467298;254;28145;-73
2022/03/17 09:06:59;;;;;;;13.57;10.27;;;9.60;99.90;;;;;;467352;254;27931;-72
2022/03/17 09:09:09;;;;;;;14.07;10.63;;;9.60;99.90;;;;;;467352;254;28042;-74
2022/03/17 09:11:13;;;;;;;12.67;10.20;;;9.70;99.90;;;;;;467373;254;27658;-73
2022/03/17 09:13:23;;;;;;;12.90;10.20;;;9.70;99.90;;;;;;467375;254;28508;-74
2022/03/17 09:15:24;;;;;;;14.60;11.10;;;9.80;99.90;;;;;;467367;254;27899;-71
2022/03/17 09:17:28;;;;;;;15.13;10.60;;;9.80;99.90;;;;;;467341;254;28479;-73
2022/03/17 09:19:29;;;;;;;14.47;11.03;;;9.80;99.90;;;;;;467338;254;28029;-73
2022/03/17 09:21:37;;;;;;;15.50;11.37;;;9.90;99.90;;;;;;467326;254;28369;-74
2022/03/17 09:23:38;;;;;;;17.20;12.53;;;9.90;99.90;;;;;;467340;254;27994;-73
2022/03/17 09:25:49;;;;;;;19.40;13.50;;;9.80;99.90;;;;;;467323;254;28453;-73
2022/03/17 09:27:50;;;;;;;20.73;14.13;;;9.70;99.90;;;;;;467335;254;28253;-72
2022/03/17 09:29:58;;;;;;;22.13;15.33;;;9.60;99.90;;;;;;467288;254;28731;-73
2022/03/17 09:32:00;;;;;;;20.23;15.20;;;9.50;99.90;;;;;;467331;254;28046;-73
2022/03/17 09:34:01;;;;;;;26.43;18.20;;;9.40;99.90;;;;;;467333;254;28374;-73
2022/03/17 09:36:11;;;;;;;26.97;18.30;;;9.40;99.90;;;;;;467320;254;28368;-73
2022/03/17 09:38:12;;;;;;;25.53;18.00;;;9.30;99.90;;;;;;467328;254;28109;-73
2022/03/17 09:40:13;;;;;;;25.60;18.50;;;9.20;99.90;;;;;;467320;254;28022;-73
2022/03/17 09:42:21;;;;;;;25.33;18.40;;;9.20;99.90;;;;;;467327;254;28074;-73
2022/03/17 09:44:22;;;;;;;24.03;18.23;;;9.10;99.90;;;;;;467326;254;28030;-73
2022/03/17 09:46:23;;;;;;;26.50;18.17;;;9.10;99.90;;;;;;467315;254;27952;-73
2022/03/17 09:48:30;;;;;;;23.37;18.23;;;9.10;99.90;;;;;;467335;254;27993;-72
2022/03/17 09:50:32;;;;;;;23.53;18.13;;;9.10;99.90;;;;;;467338;254;27939;-73
2022/03/17 09:52:36;;;;;;;28.20;18.33;;;9.20;99.90;;;;;;467314;254;27869;-73
2022/03/17 09:54:37;;;;;;;35.90;20.60;;;9.20;99.90;;;;;;467333;254;27774;-77
2022/03/17 09:58:47;;;;;;;29.13;18.33;;;9.20;99.90;;;;;;467335;254;27643;-73
2022/03/17 10:02:54;;;;;;;32.27;21.10;;;9.10;99.90;;;;;;467343;254;27660;-72
2022/03/17 10:05:05;;;;;;;30.03;21.13;;;9.10;99.90;;;;;;467331;254;28403;-72
2022/03/17 10:07:07;;;;;;;29.50;20.50;;;9.00;99.90;;;;;;467326;254;27948;-73
2022/03/17 10:09:11;;;;;;;27.30;18.70;;;9.10;99.90;;;;;;467313;254;28426;-73
2022/03/17 10:11:13;;;;;;;24.00;17.10;;;9.10;99.90;;;;;;467312;254;27999;-73
2022/03/17 10:15:34;;;;;;;24.70;17.00;;;9.20;99.90;;;;;;467364;254;27440;-73
2022/03/17 10:17:41;;;;;;;24.27;17.80;;;9.10;99.90;;;;;;467340;254;28013;-73
2022/03/17 10:19:43;;;;;;;25.57;18.10;;;9.10;99.90;;;;;;467333;254;28059;-73
2022/03/17 10:21:50;;;;;;;26.70;18.70;;;9.10;99.90;;;;;;467346;254;27656;-73
2022/03/17 10:23:52;;;;;;;28.20;19.47;;;9.10;99.90;;;;;;467356;254;28083;-71
2022/03/17 10:25:58;;;;;;;24.70;17.50;;;9.10;99.90;;;;;;467331;254;27906;-73
2022/03/17 10:28:02;;;;;;;23.90;17.90;;;9.10;99.90;;;;;;467334;254;27904;-71
2022/03/17 10:30:06;;;;;;;26.30;17.60;;;9.10;99.90;;;;;;467281;254;28149;-73
2022/03/17 10:32:07;;;;;;;24.83;18.30;;;9.20;99.90;;;;;;467329;254;27768;-71
2022/03/17 10:34:14;;;;;;;24.93;17.80;;;9.10;99.90;;;;;;467332;254;28546;-72
2022/03/17 10:36:15;;;;;;;27.17;18.90;;;9.10;99.90;;;;;;467350;254;28454;-71
2022/03/17 10:38:23;;;;;;;24.63;17.97;;;9.10;99.90;;;;;;467345;254;28520;-73
2022/03/17 10:40:24;;;;;;;28.37;19.50;;;9.10;99.90;;;;;;467338;254;27979;-71
2022/03/17 10:42:25;;;;;;;38.60;25.13;;;9.00;99.90;;;;;;467358;254;28026;-72
2022/03/17 10:44:33;;;;;;;37.87;24.70;;;8.90;99.90;;;;;;467327;254;27808;-72
2022/03/17 10:46:34;;;;;;;37.90;25.13;;;8.90;99.90;;;;;;467291;254;27914;-71
2022/03/17 10:48:36;;;;;;;39.37;25.60;;;8.90;99.90;;;;;;467327;254;27936;-73
2022/03/17 10:50:38;;;;;;;40.67;26.67;;;8.80;99.90;;;;;;467345;254;27433;-72
2022/03/17 10:52:39;;;;;;;40.33;26.47;;;8.70;99.90;;;;;;467314;254;28408;-73
2022/03/17 10:54:46;;;;;;;46.83;27.47;;;8.60;99.90;;;;;;467321;254;27992;-72
2022/03/17 10:56:47;;;;;;;41.50;27.10;;;8.50;99.90;;;;;;467339;254;28143;-71
2022/03/17 10:58:50;;;;;;;41.30;25.73;;;8.50;99.90;;;;;;467337;254;28894;-71
2022/03/17 11:00:50;;;;;;;43.37;26.80;;;8.50;99.90;;;;;;467311;254;28531;-73
2022/03/17 11:02:53;;;;;;;46.47;28.73;;;8.40;99.90;;;;;;467318;254;28514;-73
2022/03/17 11:04:55;;;;;;;47.17;28.37;;;8.30;99.90;;;;;;467309;254;27990;-71
2022/03/17 11:06:56;;;;;;;41.30;25.90;;;8.30;99.90;;;;;;467321;254;28327;-73
2022/03/17 11:09:00;;;;;;;40.33;26.20;;;8.30;99.90;;;;;;467363;254;27919;-73
2022/03/17 11:11:02;;;;;;;41.93;25.63;;;8.40;99.90;;;;;;467323;254;28461;-73
2022/03/17 11:13:08;;;;;;;39.40;25.17;;;8.40;99.90;;;;;;467352;254;28115;-75
2022/03/17 11:15:17;;;;;;;36.70;24.83;;;8.50;99.90;;;;;;467312;254;28305;-73
2022/03/17 11:17:18;;;;;;;36.77;23.33;;;8.50;99.90;;;;;;467317;254;27924;-73
2022/03/17 11:19:21;;;;;;;38.10;24.43;;;8.50;99.90;;;;;;467356;254;28531;-73
2022/03/17 11:21:23;;;;;;;38.60;24.40;;;8.60;99.90;;;;;;467340;254;27906;-74
2022/03/17 11:23:35;;;;;;;42.90;23.47;;;8.50;99.90;;;;;;467338;254;28648;-71
2022/03/17 11:25:25;;;;;;;37.43;23.00;;;8.60;99.90;;;;;;467301;254;27998;-73
2022/03/17 11:27:27;;;;;;;43.90;25.37;;;8.60;99.90;;;;;;467306;254;28407;-74
2022/03/17 11:29:34;;;;;;;52.17;29.90;;;8.50;99.90;;;;;;467435;253;28589;-74
2022/03/17 11:31:35;;;;;;;42.67;25.77;;;8.40;99.90;;;;;;467346;254;28068;-71
2022/03/17 11:33:46;;;;;;;42.17;26.47;;;8.50;99.90;;;;;;467392;254;28426;-75
2022/03/17 11:35:47;;;;;;;39.40;25.27;;;8.50;99.90;;;;;;467433;254;28098;-73
2022/03/17 11:37:49;;;;;;;42.77;27.00;;;8.60;99.90;;;;;;467391;251;28124;-73
2022/03/17 11:39:51;;;;;;;49.80;29.10;;;8.60;99.90;;;;;;467368;254;27655;-73
2022/03/17 11:41:53;;;;;;;43.30;26.60;;;8.50;99.90;;;;;;467298;254;28226;-73
2022/03/17 11:43:55;;;;;;;41.07;25.07;;;8.60;99.90;;;;;;467344;254;28353;-73
2022/03/17 11:45:56;;;;;;;44.50;26.27;;;8.70;99.90;;;;;;467325;254;28047;-73
2022/03/17 11:48:01;;;;;;;38.33;24.80;;;8.60;99.90;;;;;;467276;254;28110;-73
2022/03/17 11:50:02;;;;;;;37.67;25.07;;;8.80;99.90;;;;;;467293;254;28382;-73
2022/03/17 11:52:08;;;;;;;39.40;24.43;;;8.90;99.90;;;;;;467307;254;28406;-73
2022/03/17 11:54:06;;;;;;;43.70;25.90;;;8.80;99.90;;;;;;467293;254;27825;-72
2022/03/17 11:56:16;;;;;;;37.50;24.93;;;8.80;99.90;;;;;;467427;254;27736;-74
2022/03/17 11:58:19;;;;;;;41.13;25.00;;;8.80;99.90;;;;;;467354;254;27900;-73
2022/03/17 12:00:26;;;;;;;40.80;24.80;;;8.70;99.90;;;;;;467353;254;28496;-74
2022/03/17 12:02:27;;;;;;;33.70;21.73;;;8.70;99.90;;;;;;467365;254;27996;-73
2022/03/17 12:04:31;;;;;;;30.37;21.07;;;8.80;99.90;;;;;;467362;254;28578;-73
2022/03/17 12:06:32;;;;;;;30.77;20.70;;;8.80;99.90;;;;;;467347;254;28070;-73
2022/03/17 12:08:34;;;;;;;29.57;19.90;;;8.80;99.90;;;;;;467343;254;28443;-73
2022/03/17 12:10:38;;;;;;;32.87;19.07;;;8.80;99.90;;;;;;467309;254;28561;-74
2022/03/17 12:12:40;;;;;;;30.60;20.47;;;8.80;99.90;;;;;;467323;254;27915;-73
2022/03/17 12:14:41;;;;;;;31.93;21.17;;;8.70;99.90;;;;;;467318;254;27951;-73
2022/03/17 12:16:42;;;;;;;32.10;20.97;;;8.70;99.90;;;;;;467328;254;28569;-72
2022/03/17 12:19:00;;;;;;;31.97;20.70;;;8.70;99.90;;;;;;467318;254;27913;-74
2022/03/17 12:20:59;;;;;;;28.87;19.57;;;8.60;99.90;;;;;;467309;254;27611;-72
2022/03/17 12:23:01;;;;;;;26.60;18.67;;;8.60;99.90;;;;;;467320;254;28508;-73
2022/03/17 12:25:03;;;;;;;30.00;19.07;;;8.60;99.90;;;;;;467334;254;27539;-73
2022/03/17 12:27:10;;;;;;;25.37;17.10;;;8.60;99.90;;;;;;467290;254;28531;-73
2022/03/17 12:29:11;;;;;;;26.87;18.77;;;8.70;99.90;;;;;;467344;254;28291;-72
2022/03/17 12:31:15;;;;;;;22.73;15.63;;;8.60;99.90;;;;;;467326;254;28268;-73
2022/03/17 12:33:17;;;;;;;25.93;17.13;;;8.50;99.90;;;;;;467330;254;27524;-70
2022/03/17 12:37:22;;;;;;;26.33;17.63;;;8.30;99.90;;;;;;467329;254;28577;-73
2022/03/17 12:39:29;;;;;;;30.73;17.77;;;8.30;99.90;;;;;;467316;254;27943;-73
2022/03/17 12:41:30;;;;;;;30.63;20.17;;;8.20;99.90;;;;;;467333;254;27916;-73
2022/03/17 12:43:32;;;;;;;29.97;18.87;;;8.20;99.90;;;;;;467320;254;28610;-73
2022/03/17 12:47:46;;;;;;;27.47;19.60;;;8.30;99.90;;;;;;467309;254;27699;-73
2022/03/17 12:49:51;;;;;;;31.10;20.77;;;8.10;99.90;;;;;;467295;254;28459;-73
2022/03/17 12:51:52;;;;;;;31.90;20.13;;;8.10;99.90;;;;;;467350;254;28114;-73
2022/03/17 12:53:53;;;;;;;36.23;21.53;;;8.10;99.90;;;;;;467319;254;28463;-72
2022/03/17 12:55:54;;;;;;;33.00;22.07;;;8.10;99.90;;;;;;467345;251;28678;-73
2022/03/17 12:58:01;;;;;;;32.07;21.03;;;8.10;99.90;;;;;;467363;254;28512;-72
2022/03/17 13:00:00;;;;;;;30.10;19.37;;;8.00;99.90;;;;;;467330;254;28244;-73
2022/03/17 13:02:18;;;;;;;32.63;21.03;;;8.10;99.90;;;;;;467291;254;28359;-74
2022/03/17 13:04:19;;;;;;;32.27;18.83;;;8.00;99.90;;;;;;467302;254;27551;-72
2022/03/17 13:08:48;;;;;;;30.70;16.63;;;8.00;99.90;;;;;;467319;254;26627;-73
2022/03/17 13:15:35;;;;;;;24.20;15.30;;;8.00;99.90;;;;;;467332;254;27928;-73
2022/03/17 13:20:08;;;;;;;24.90;14.90;;;7.90;99.90;;;;;;467338;254;28199;-73
2022/03/17 13:22:08;;;;;;;25.73;15.23;;;8.00;99.90;;;;;;467274;254;27663;-72
2022/03/17 13:24:09;;;;;;;20.63;13.60;;;8.10;99.90;;;;;;467305;254;27773;-72
2022/03/17 13:26:12;;;;;;;20.57;13.40;;;8.00;99.90;;;;;;467328;254;27929;-73
2022/03/17 13:28:13;;;;;;;21.10;13.17;;;8.10;99.90;;;;;;467320;254;27960;-72
2022/03/17 13:30:15;;;;;;;20.73;12.47;;;8.10;99.90;;;;;;467309;254;28361;-73
2022/03/17 13:32:17;;;;;;;19.47;11.30;;;8.20;99.90;;;;;;467324;254;28039;-78
2022/03/17 13:34:18;;;;;;;17.13;11.00;;;8.30;99.90;;;;;;467349;254;28685;-73
2022/03/17 13:36:23;;;;;;;18.83;12.10;;;8.30;99.90;;;;;;467327;254;27992;-73
2022/03/17 13:38:20;;;;;;;17.87;11.17;;;8.20;99.90;;;;;;467279;254;28405;-74
2022/03/17 13:40:27;;;;;;;19.10;11.63;;;8.20;99.90;;;;;;467296;254;28490;-73
2022/03/17 13:42:28;;;;;;;19.67;11.87;;;7.90;99.90;;;;;;467332;254;27896;-72
2022/03/17 13:44:29;;;;;;;17.10;11.43;;;7.90;99.90;;;;;;467346;254;28627;-73
2022/03/17 13:46:33;;;;;;;15.40;10.33;;;8.00;99.90;;;;;;467357;254;27795;-73
2022/03/17 13:48:34;;;;;;;14.27;9.60;;;8.20;99.90;;;;;;467334;254;28138;-73
2022/03/17 13:50:41;;;;;;;16.40;10.23;;;;;;;;;;467345;254;28507;-73
2022/03/17 13:52:43;;;;;;;16.83;10.13;;;;;;;;;;466701;254;27765;-75
2022/03/17 13:54:47;;;;;;;13.93;9.70;;;;;;;;;;467292;254;26857;-73
2022/03/17 13:56:47;;;;;;;20.10;9.60;;;;;;;;;;467271;254;27078;-73
2022/03/17 13:58:54;;;;;;;14.07;8.43;;;;;;;;;;467279;254;27247;-73
2022/03/17 14:00:57;;;;;;;12.87;9.50;;;;;;;;;;467319;254;27701;-73
2022/03/17 14:03:07;;;;;;;16.13;9.60;;;;;;;;;;467314;254;26795;-73
2022/03/17 14:05:09;;;;;;;13.80;8.70;;;;;;;;;;467316;254;27391;-73
2022/03/17 14:07:11;;;;;;;15.47;9.20;;;;;;;;;;467241;254;27166;-73
2022/03/17 14:09:15;;;;;;;12.40;8.10;;;;;;;;;;467303;254;26913;-73
2022/03/17 14:11:15;;;;;;;12.57;8.03;;;;;;;;;;467280;254;27653;-73
2022/03/17 14:13:17;;;;;;;11.93;8.27;;;;;;;;;;467258;254;26909;-73
2022/03/17 14:15:26;;;;;;;11.43;7.03;;;;;;;;;;467272;254;27007;-74
2022/03/17 14:17:28;;;;;;;12.60;8.70;;;8.30;99.90;;;;;;467321;254;27584;-72
2022/03/17 14:19:35;;;;;;;14.10;10.03;;;8.10;99.90;;;;;;467320;254;28470;-73
2022/03/17 14:24:10;;;;;;;14.27;8.57;;;7.90;99.90;;;;;;467313;254;28123;-73
2022/03/17 14:26:00;;;;;;;18.60;10.13;;;7.90;99.90;;;;;;467286;254;28009;-73
2022/03/17 14:28:03;;;;;;;15.60;9.70;;;7.90;99.90;;;;;;467289;254;28001;-72
2022/03/17 14:30:05;;;;;;;14.30;10.37;;;7.90;99.90;;;;;;467303;254;28013;-73
2022/03/17 14:32:08;;;;;;;15.00;9.30;;;;;;;;;;467298;254;28582;-73
2022/03/17 14:34:11;;;;;;;13.07;9.37;;;7.90;99.90;;;;;;467289;254;27169;-73
2022/03/17 14:36:12;;;;;;;12.13;7.90;;;8.00;99.90;;;;;;467336;254;28055;-73
2022/03/17 14:38:26;;;;;;;12.33;7.30;;;8.10;99.90;;;;;;467311;254;28005;-73
2022/03/17 14:40:27;;;;;;;12.23;7.70;;;8.20;99.90;;;;;;467299;254;27689;-73
2022/03/17 14:42:34;;;;;;;9.20;6.80;;;8.20;99.90;;;;;;467313;254;27905;-73
2022/03/17 14:44:35;;;;;;;9.93;6.97;;;8.30;99.90;;;;;;467337;254;28019;-72
2022/03/17 14:46:37;;;;;;;9.43;6.60;;;8.30;99.90;;;;;;467290;254;27924;-73
2022/03/17 14:50:45;;;;;;;8.90;6.83;;;8.00;99.90;;;;;;467318;254;28086;-73
2022/03/17 14:52:56;;;;;;;11.00;8.00;;;8.10;99.90;;;;;;467291;254;27932;-73